M I D A S
Marine Information and Data Acquisition System
Tripno 1229 of the Zeeleeuw from 2007-03-12 08:05:23 to 2007-03-12 13:45:51
Back to CruiseResearch ActivitiesStationsMapUnderway DataData graphs

EquipmentUnitsComment
TimeDGPSUTC
LatitudeDGPSDM.mWGS84
LongitudeDGPSDM.mWGS84
HeadingGyrodeg 
SOGDGPSknotsSpeed over ground
COGDGPSdegCourse over ground
DepthEcho soundermeters200 kHz
Missing or incorrect values are displayed as -999
Navigation data collected by the RV Zeeleeuw from 2007-03-12 07:47:02 to 2007-03-12 13:55:59
Time Latitude Longitude Heading SOG COG Depth
2007-03-12 07:48:06 51°13.597 2°56.096 127.9 0.1 74 7.7
2007-03-12 07:49:07 51°13.597 2°56.095 115.9 0.1 189 7.6
2007-03-12 07:50:06 51°13.6 2°56.085 113.6 1.3 293 8.2
2007-03-12 07:51:07 51°13.617 2°56.016 112.6 3.5 292 -999
2007-03-12 07:52:07 51°13.64 2°55.929 115.4 3.6 295 -999
2007-03-12 07:53:07 51°13.664 2°55.845 112 3.3 292 10.4
2007-03-12 07:54:07 51°13.675 2°55.766 96.2 2.7 274 10.3
2007-03-12 07:55:06 51°13.685 2°55.762 52.2 2 32 12.3
2007-03-12 07:56:05 51°13.709 2°55.763 355.5 0.4 244 14.1
2007-03-12 07:57:05 51°13.722 2°55.742 332.7 3.5 326 13.1
2007-03-12 07:58:03 51°13.792 2°55.674 331.4 6.1 329 10.9
2007-03-12 07:59:04 51°13.893 2°55.59 339.3 7.2 334 11.6
2007-03-12 08:00:04 51°14.004 2°55.509 339.3 7.4 337 11.6
2007-03-12 08:01:04 51°14.115 2°55.427 338.9 7.3 335 11.7
2007-03-12 08:02:03 51°14.221 2°55.323 327.9 8.3 322 12.1
2007-03-12 08:03:04 51°14.327 2°55.141 313.6 10.1 309 11.9
2007-03-12 08:04:04 51°14.425 2°54.89 299.4 12.2 293 11.5
2007-03-12 08:05:04 51°14.442 2°54.558 263.5 13.2 257 11.8
2007-03-12 08:06:04 51°14.352 2°54.231 245.1 13.6 242 9.8
2007-03-12 08:07:03 51°14.241 2°53.923 243.1 13.6 240 9.7
2007-03-12 08:08:04 51°14.129 2°53.604 243.4 13.6 241 9.9
2007-03-12 08:09:03 51°14.02 2°53.292 243.8 13.7 241 10.1
2007-03-12 08:10:04 51°13.909 2°52.968 244 13.7 242 10.4
2007-03-12 08:11:04 51°13.798 2°52.65 243.8 13.7 241 10.6
2007-03-12 08:12:04 51°13.688 2°52.33 244.3 13.7 241 10.8
2007-03-12 08:13:04 51°13.578 2°52.01 243.9 13.7 241 10.9
2007-03-12 08:14:04 51°13.47 2°51.689 244.1 13.7 242 11
2007-03-12 08:15:04 51°13.361 2°51.371 243.9 13.7 241 11.2
2007-03-12 08:16:04 51°13.252 2°51.051 244.5 13.7 243 11.2
2007-03-12 08:17:04 51°13.144 2°50.73 244.4 13.8 242 11.4
2007-03-12 08:18:03 51°13.038 2°50.412 244.3 13.8 242 11.6
2007-03-12 08:19:04 51°12.929 2°50.084 244.5 13.8 242 11.7
2007-03-12 08:20:03 51°12.823 2°49.769 244 13.8 241 11.9
2007-03-12 08:21:03 51°12.712 2°49.448 243.7 13.9 242 12
2007-03-12 08:22:04 51°12.599 2°49.122 243.1 13.9 241 12.1
2007-03-12 08:23:04 51°12.488 2°48.8 243.2 13.8 241 12.2
2007-03-12 08:24:04 51°12.376 2°48.478 243.4 13.9 241 12.3
2007-03-12 08:25:03 51°12.266 2°48.162 242.7 13.8 241 12.4
2007-03-12 08:26:04 51°12.153 2°47.834 243.5 13.9 241 12.5
2007-03-12 08:27:04 51°12.042 2°47.511 243.8 13.9 242 12.3
2007-03-12 08:28:04 51°11.94 2°47.181 249.9 13.9 248 12.3
2007-03-12 08:29:03 51°11.868 2°46.836 254.7 14 252 12.6
2007-03-12 08:30:04 51°11.797 2°46.477 254.4 13.9 251 12.9
2007-03-12 08:31:04 51°11.719 2°46.131 252.5 13.8 250 12.9
2007-03-12 08:32:03 51°11.641 2°45.791 252.4 13.9 250 12.9
2007-03-12 08:33:04 51°11.561 2°45.439 252.6 13.9 251 12.8
2007-03-12 08:34:03 51°11.487 2°45.095 255.1 14 253 12.8
2007-03-12 08:35:03 51°11.419 2°44.741 255.6 13.9 253 12.8
2007-03-12 08:36:03 51°11.352 2°44.386 255.5 14 253 12.8
2007-03-12 08:37:03 51°11.283 2°44.032 255.4 14 253 12.7
2007-03-12 08:38:03 51°11.232 2°43.67 264.9 14.1 262 12.8
2007-03-12 08:39:03 51°11.205 2°43.331 264.3 11 261 12.9
2007-03-12 08:40:03 51°11.179 2°43.055 271.8 10.4 270 12.9
2007-03-12 08:41:03 51°11.173 2°42.78 269.2 10.3 266 12.8
2007-03-12 08:42:03 51°11.154 2°42.553 259.4 7.1 258 12.7
2007-03-12 08:43:03 51°11.132 2°42.391 258.3 6.4 258 12.6
2007-03-12 08:44:03 51°11.115 2°42.225 261.5 5.6 261 12.5
2007-03-12 08:45:03 51°11.096 2°42.105 250.4 3.8 251 12.5
2007-03-12 08:46:03 51°11.089 2°42.057 260.1 1 272 12.5
2007-03-12 08:47:03 51°11.092 2°42.033 268.5 0.9 285 12.4
2007-03-12 08:48:03 51°11.096 2°42.01 271.3 0.9 288 12.4
2007-03-12 08:49:03 51°11.1 2°41.988 267.9 0.8 287 12.4
2007-03-12 08:50:03 51°11.105 2°41.968 263.6 0.8 288 12.3
2007-03-12 08:51:03 51°11.11 2°41.95 261.7 0.7 293 12.3
2007-03-12 08:52:03 51°11.115 2°41.933 260.7 0.7 298 12.3
2007-03-12 08:53:03 51°11.12 2°41.916 260.2 0.7 296 12.3
2007-03-12 08:54:03 51°11.126 2°41.901 260.2 0.7 299 12.2
2007-03-12 08:55:03 51°11.118 2°41.834 249 5.2 250 12.1
2007-03-12 08:56:03 51°11.059 2°41.617 247.1 11.5 245 12
2007-03-12 08:57:03 51°10.969 2°41.304 247.4 13.6 246 12.2
2007-03-12 08:58:03 51°10.897 2°40.959 258 13.8 255 12.5
2007-03-12 08:59:03 51°10.839 2°40.605 258.3 13.8 255 13.1
2007-03-12 09:00:03 51°10.781 2°40.251 257.9 13.8 256 13.5
2007-03-12 09:01:03 51°10.724 2°39.897 258.3 13.8 256 14.2
2007-03-12 09:02:03 51°10.667 2°39.542 258.7 13.8 256 14.6
2007-03-12 09:03:03 51°10.611 2°39.188 258.4 13.8 256 15.5
2007-03-12 09:04:03 51°10.554 2°38.833 259.3 13.8 257 16.4
2007-03-12 09:05:03 51°10.51 2°38.473 262.7 13.9 260 17.2
2007-03-12 09:06:03 51°10.469 2°38.112 262.4 13.9 260 17.7
2007-03-12 09:07:03 51°10.426 2°37.749 262.3 13.9 260 17.7
2007-03-12 09:08:03 51°10.398 2°37.383 269.6 13.9 267 17.2
2007-03-12 09:09:03 51°10.398 2°37.017 280.2 13.8 280 15.4
2007-03-12 09:10:03 51°10.509 2°36.71 313.7 13.1 310 8.4
2007-03-12 09:11:03 51°10.703 2°36.552 356.8 13.6 352 10.3
2007-03-12 09:12:03 51°10.921 2°36.623 23.9 13.4 17 11.7
2007-03-12 09:13:03 51°11.136 2°36.716 20.7 13.4 15 12.1
2007-03-12 09:14:03 51°11.352 2°36.807 21.7 13.4 15 12.2
2007-03-12 09:15:03 51°11.568 2°36.902 21.8 13.5 16 12.1
2007-03-12 09:16:03 51°11.785 2°36.986 18.8 13.4 12 11.4
2007-03-12 09:17:03 51°12.002 2°37.059 18.8 13.4 12 10.4
2007-03-12 09:18:03 51°12.221 2°37.124 16.4 13.4 9 10.1
2007-03-12 09:19:03 51°12.444 2°37.179 15.3 13.5 9 10.4
2007-03-12 09:20:03 51°12.668 2°37.217 13 13.5 6 10.3
2007-03-12 09:21:03 51°12.891 2°37.253 13.5 13.4 6 9.7
2007-03-12 09:22:03 51°13.113 2°37.27 10.1 13.4 2 8.7
2007-03-12 09:23:03 51°13.337 2°37.265 3.3 13.4 356 8.3
2007-03-12 09:24:03 51°13.56 2°37.245 3.6 13.4 354 8.7
2007-03-12 09:25:03 51°13.794 2°37.182 358 14 351 18.2
2007-03-12 09:26:03 51°14.022 2°37.126 358.8 13.8 352 18.3
2007-03-12 09:27:03 51°14.247 2°37.071 358.7 13.6 351 12.6
2007-03-12 09:28:03 51°14.472 2°37.018 358.7 13.6 352 10.8
2007-03-12 09:29:03 51°14.697 2°36.97 359.3 13.6 352 7.8
2007-03-12 09:30:03 51°14.923 2°36.917 0.3 13.7 353 9.4
2007-03-12 09:31:03 51°15.153 2°36.867 357.8 13.8 350 13.7
2007-03-12 09:32:03 51°15.377 2°36.798 355.8 13.6 348 12.4
2007-03-12 09:33:03 51°15.601 2°36.731 355.8 13.8 349 13.8
2007-03-12 09:34:03 51°15.827 2°36.668 356.2 13.7 350 19.5
2007-03-12 09:35:03 51°16.051 2°36.608 356.5 13.7 351 26
2007-03-12 09:36:03 51°16.248 2°36.55 355.7 9.7 349 27.6
2007-03-12 09:37:03 51°16.384 2°36.518 9.2 7.2 8 27.3
2007-03-12 09:38:03 51°16.476 2°36.612 43 6.8 35 26.4
2007-03-12 09:39:03 51°16.566 2°36.719 54.4 5.9 49 26.2
2007-03-12 09:40:03 51°16.595 2°36.805 90 1.6 79 26
2007-03-12 09:41:03 51°16.597 2°36.825 112.5 0.6 95 26
2007-03-12 09:42:03 51°16.595 2°36.837 120.2 0.3 101 26
2007-03-12 09:43:03 51°16.596 2°36.843 123.5 0.1 82 26
2007-03-12 09:44:03 51°16.596 2°36.845 125.7 0.1 357 26.1
2007-03-12 09:45:03 51°16.598 2°36.842 127.7 0.2 328 26
2007-03-12 09:46:03 51°16.6 2°36.837 127.2 0.3 314 26
2007-03-12 09:47:03 51°16.603 2°36.832 125.9 0.3 308 26
2007-03-12 09:48:03 51°16.606 2°36.825 123.1 0.4 309 25.9
2007-03-12 09:49:03 51°16.613 2°36.818 116.4 0.5 316 26
2007-03-12 09:50:03 51°16.619 2°36.807 108.9 0.5 309 26
2007-03-12 09:51:03 51°16.624 2°36.812 84.1 1.6 69 26
2007-03-12 09:52:03 51°16.681 2°36.869 29.4 7.3 22 25.9
2007-03-12 09:53:03 51°16.821 2°37.024 47.4 12.1 41 26.5
2007-03-12 09:54:03 51°16.993 2°37.241 43.3 13.5 37 28
2007-03-12 09:55:03 51°17.171 2°37.457 43.2 13.5 37 26.3
2007-03-12 09:56:03 51°17.349 2°37.675 43.5 13.4 38 26.4
2007-03-12 09:57:03 51°17.534 2°37.876 40.1 13.5 33 26.5
2007-03-12 09:58:03 51°17.723 2°38.075 40.4 13.6 34 26.5
2007-03-12 09:59:03 51°17.913 2°38.266 38.4 13.6 33 26.4
2007-03-12 10:00:03 51°18.106 2°38.458 38.5 13.7 33 26.1
2007-03-12 10:01:03 51°18.302 2°38.643 35.3 13.7 29 26.4
2007-03-12 10:02:03 51°18.508 2°38.801 30.7 13.7 25 26.3
2007-03-12 10:03:03 51°18.716 2°38.952 31 13.8 25 25.9
2007-03-12 10:04:03 51°18.924 2°39.101 28.7 13.8 20 26.5
2007-03-12 10:05:03 51°19.143 2°39.212 23.2 13.8 17 27.4
2007-03-12 10:06:03 51°19.361 2°39.317 23.3 13.7 16 29.1
2007-03-12 10:07:03 51°19.579 2°39.422 24.3 13.7 18 29
2007-03-12 10:08:03 51°19.798 2°39.529 23.5 13.7 18 29.1
2007-03-12 10:09:03 51°20.017 2°39.635 24.2 13.8 17 28
2007-03-12 10:10:03 51°20.237 2°39.743 24.1 13.8 18 27.5
2007-03-12 10:11:03 51°20.456 2°39.852 24 13.8 18 26.6
2007-03-12 10:12:03 51°20.675 2°39.965 24.3 13.8 18 26.4
2007-03-12 10:13:03 51°20.893 2°40.074 23.7 13.7 17 25.9
2007-03-12 10:14:04 51°21.114 2°40.184 23.9 13.7 17 26.4
2007-03-12 10:15:03 51°21.328 2°40.29 24 13.7 17 25.5
2007-03-12 10:16:03 51°21.539 2°40.423 29.3 13.6 22 27.1
2007-03-12 10:17:03 51°21.746 2°40.565 30.4 13.6 23 26.3
2007-03-12 10:18:03 51°21.948 2°40.722 35.6 13.5 29 27
2007-03-12 10:19:03 51°22.145 2°40.898 36.6 13.6 31 27.3
2007-03-12 10:20:03 51°22.333 2°41.094 40.9 13.6 34 27.8
2007-03-12 10:21:03 51°22.513 2°41.31 46.3 13.5 40 28.1
2007-03-12 10:22:03 51°22.675 2°41.56 51.7 13.5 46 29.6
2007-03-12 10:23:03 51°22.807 2°41.847 62.3 13.4 58 27.1
2007-03-12 10:24:03 51°22.93 2°42.145 62.5 13.4 57 26.1
2007-03-12 10:25:03 51°23.056 2°42.442 61.4 13.4 55 25.9
2007-03-12 10:26:03 51°23.182 2°42.736 61.2 13.4 55 25.2
2007-03-12 10:27:03 51°23.331 2°43.003 52.1 13.5 46 26
2007-03-12 10:28:03 51°23.485 2°43.258 52.1 13.3 46 24.7
2007-03-12 10:29:03 51°23.64 2°43.511 51.6 13.3 45 25.1
2007-03-12 10:30:03 51°23.794 2°43.764 51.4 13.3 45 21.5
2007-03-12 10:31:03 51°23.938 2°44.03 57.3 13.3 51 26.1
2007-03-12 10:32:04 51°24.073 2°44.318 60.2 13.2 54 25.1
2007-03-12 10:33:03 51°24.199 2°44.6 60.6 13.2 56 24.8
2007-03-12 10:34:03 51°24.325 2°44.888 61.8 13.1 56 26.2
2007-03-12 10:35:03 51°24.45 2°45.174 60.3 13.2 54 25.4
2007-03-12 10:36:03 51°24.578 2°45.462 60.2 13.3 55 25.6
2007-03-12 10:37:03 51°24.708 2°45.747 59.8 13.3 54 24.2
2007-03-12 10:38:03 51°24.835 2°46.037 60.6 13.3 55 24.1
2007-03-12 10:39:04 51°24.967 2°46.332 59.9 13.4 55 23.9
2007-03-12 10:40:03 51°25.095 2°46.617 60.8 13.3 55 24.2
2007-03-12 10:41:03 51°25.229 2°46.897 52.2 13.3 45 24.4
2007-03-12 10:42:03 51°25.395 2°47.135 47.2 13.4 40 25.2
2007-03-12 10:43:03 51°25.562 2°47.37 47.9 13.3 42 23.9
2007-03-12 10:44:03 51°25.728 2°47.607 48.5 13.4 42 25
2007-03-12 10:45:03 51°25.894 2°47.845 47.8 12.6 42 22.7
2007-03-12 10:46:03 51°26.002 2°48.031 71.8 7.1 71 22.3
2007-03-12 10:47:03 51°26.009 2°48.173 95 4.1 92 22.9
2007-03-12 10:48:03 51°26.012 2°48.269 82 3.3 78 22.6
2007-03-12 10:49:03 51°26.025 2°48.368 84.9 4.3 82 22.9
2007-03-12 10:50:03 51°26.021 2°48.463 103.6 2.9 104 22.9
2007-03-12 10:51:03 51°26.012 2°48.501 122.6 0.6 131 22.9
2007-03-12 10:52:03 51°26.005 2°48.508 132 0.4 152 22.8
2007-03-12 10:53:03 51°25.999 2°48.51 135.2 0.4 180 22.8
2007-03-12 10:54:03 51°25.993 2°48.51 138 0.4 195 23
2007-03-12 10:55:04 51°25.988 2°48.507 140 0.3 207 23.1
2007-03-12 10:56:03 51°25.984 2°48.503 139.7 0.3 217 23.2
2007-03-12 10:57:03 51°25.98 2°48.498 139.3 0.4 231 22.9
2007-03-12 10:58:03 51°25.977 2°48.491 139.3 0.3 236 22.9
2007-03-12 10:59:03 51°25.974 2°48.484 142.2 0.3 244 23
2007-03-12 11:00:03 51°25.965 2°48.484 143.5 1.7 153 23.1
2007-03-12 11:01:03 51°25.93 2°48.563 106.1 5.5 103 23.4
2007-03-12 11:02:03 51°25.896 2°48.78 110.8 10.8 111 23.3
2007-03-12 11:03:03 51°25.824 2°49.079 111.4 12.8 110 23.8
2007-03-12 11:04:03 51°25.75 2°49.402 113.4 13 111 22.4
2007-03-12 11:05:03 51°25.668 2°49.72 113.9 12.9 113 22.4
2007-03-12 11:06:03 51°25.584 2°50.038 115.2 12.9 114 22.1
2007-03-12 11:07:03 51°25.499 2°50.355 114 13 114 22.5
2007-03-12 11:08:03 51°25.413 2°50.671 114.6 13 113 22.6
2007-03-12 11:09:03 51°25.331 2°50.989 114.2 13 114 22.3
2007-03-12 11:10:03 51°25.244 2°51.306 114.8 13 114 22
2007-03-12 11:11:03 51°25.164 2°51.627 110.2 12.9 109 22
2007-03-12 11:12:03 51°25.093 2°51.95 110.7 13 110 22.1
2007-03-12 11:13:04 51°25.031 2°52.286 106.6 13 105 24.5
2007-03-12 11:14:03 51°24.975 2°52.614 107.2 13 105 21.1
2007-03-12 11:15:03 51°24.918 2°52.948 107.4 13 106 18.8
2007-03-12 11:16:03 51°24.86 2°53.281 105.4 12.9 104 17.2
2007-03-12 11:17:03 51°24.816 2°53.617 103 13 101 18.1
2007-03-12 11:18:04 51°24.773 2°53.961 102.5 12.8 101 16.4
2007-03-12 11:19:03 51°24.732 2°54.289 102.5 12.8 102 16.7
2007-03-12 11:20:04 51°24.685 2°54.626 104.1 12.7 103 18
2007-03-12 11:21:03 51°24.64 2°54.954 103 12.7 101 20.6
2007-03-12 11:22:04 51°24.594 2°55.293 102.9 12.8 103 22.5
2007-03-12 11:23:03 51°24.55 2°55.62 102.6 12.7 102 23.6
2007-03-12 11:24:03 51°24.513 2°55.956 99.4 12.8 99 22
2007-03-12 11:25:03 51°24.483 2°56.295 98.4 12.8 97 21.5
2007-03-12 11:26:03 51°24.453 2°56.63 98.4 12.8 99 18.7
2007-03-12 11:27:03 51°24.421 2°56.969 99.4 12.9 99 17.2
2007-03-12 11:28:03 51°24.39 2°57.307 100.1 12.8 99 16.5
2007-03-12 11:29:04 51°24.358 2°57.652 99 12.9 98 17
2007-03-12 11:30:03 51°24.328 2°57.984 99.3 12.8 98 16.5
2007-03-12 11:31:04 51°24.296 2°58.328 99.2 12.9 98 15.7
2007-03-12 11:32:03 51°24.267 2°58.662 99 12.9 97 14.9
2007-03-12 11:33:04 51°24.238 2°59.005 99.6 12.8 100 14.4
2007-03-12 11:34:03 51°24.207 2°59.336 99.4 12.8 99 15.2
2007-03-12 11:35:03 51°24.178 2°59.676 99.5 12.9 99 15.4
2007-03-12 11:36:04 51°24.148 3°0.021 98.6 12.8 98 15.7
2007-03-12 11:37:03 51°24.116 3°0.353 100.1 12.9 99 15.8
2007-03-12 11:38:04 51°24.087 3°0.696 99.6 12.7 98 16.8
2007-03-12 11:39:03 51°24.06 3°1.026 99.5 12.6 98 17.8
2007-03-12 11:40:04 51°24.031 3°1.366 99.6 12.6 99 17.6
2007-03-12 11:41:03 51°24.002 3°1.693 99.3 12.7 97 16.6
2007-03-12 11:42:04 51°23.973 3°2.032 98.7 12.6 98 15.7
2007-03-12 11:43:03 51°23.934 3°2.354 102.4 12.6 101 14.7
2007-03-12 11:44:03 51°23.892 3°2.682 103 12.5 101 13.9
2007-03-12 11:45:03 51°23.85 3°3.008 103.3 12.5 101 13.5
2007-03-12 11:46:03 51°23.807 3°3.339 103.1 12.8 101 13.5
2007-03-12 11:47:04 51°23.763 3°3.675 102.9 12.7 101 13.1
2007-03-12 11:48:03 51°23.724 3°3.999 103.1 12.5 101 12
2007-03-12 11:49:04 51°23.68 3°4.33 103.9 12.6 102 11.6
2007-03-12 11:50:03 51°23.638 3°4.652 103.2 12.5 102 11.7
2007-03-12 11:51:04 51°23.594 3°4.986 103 12.6 101 12.1
2007-03-12 11:52:03 51°23.553 3°5.307 103 12.5 102 11.8
2007-03-12 11:53:04 51°23.52 3°5.637 92 12.2 89 12
2007-03-12 11:54:04 51°23.534 3°5.965 88 12.4 86 12.4
2007-03-12 11:55:03 51°23.547 3°6.289 89.6 12.5 88 12.9
2007-03-12 11:56:04 51°23.553 3°6.626 91.8 12.5 91 12.7
2007-03-12 11:57:03 51°23.545 3°6.952 95.4 12.5 94 12.9
2007-03-12 11:58:04 51°23.524 3°7.288 98 12.5 97 12.7
2007-03-12 11:59:03 51°23.495 3°7.611 99.9 12.5 99 12.7
2007-03-12 12:00:04 51°23.463 3°7.946 100.3 12.5 99 12.7
2007-03-12 12:01:04 51°23.422 3°8.267 104.2 11.5 103 13
2007-03-12 12:02:04 51°23.385 3°8.478 106.2 6.5 106 13.4
2007-03-12 12:03:04 51°23.362 3°8.622 103.6 5.1 104 13.9
2007-03-12 12:04:03 51°23.322 3°8.752 119.7 6.3 122 13.1
2007-03-12 12:05:04 51°23.25 3°8.892 132.8 7 136 12.9
2007-03-12 12:06:03 51°23.164 3°9.021 131.9 7.3 135 12.5
2007-03-12 12:07:04 51°23.081 3°9.154 132 6.2 136 12.7
2007-03-12 12:08:04 51°23.015 3°9.253 130.8 5 136 12.8
2007-03-12 12:09:04 51°22.955 3°9.34 131.8 4.8 138 12.8
2007-03-12 12:10:04 51°22.882 3°9.462 130.1 7.9 132 12.9
2007-03-12 12:11:04 51°22.775 3°9.676 123.3 12 122 13
2007-03-12 12:12:04 51°22.728 3°9.992 96.6 12.6 93 18.3
2007-03-12 12:13:03 51°22.716 3°10.32 96.8 12.6 94 14.2
2007-03-12 12:14:04 51°22.7 3°10.658 96.8 12.5 94 13.7
2007-03-12 12:15:03 51°22.686 3°10.985 97.7 12.6 95 13.7
2007-03-12 12:16:04 51°22.669 3°11.324 97.6 12.7 94 13.8
2007-03-12 12:17:04 51°22.653 3°11.658 97.3 12.6 93 13.5
2007-03-12 12:18:03 51°22.643 3°11.987 96.5 12.6 92 13.1
2007-03-12 12:19:04 51°22.63 3°12.328 97.2 12.4 94 12.6
2007-03-12 12:20:03 51°22.619 3°12.597 97 8.5 94 12.5
2007-03-12 12:21:04 51°22.609 3°12.806 97.7 7.4 94 12.4
2007-03-12 12:22:03 51°22.6 3°12.995 97.3 7.1 94 11.9
2007-03-12 12:23:04 51°22.592 3°13.164 96.8 4.9 93 11.5
2007-03-12 12:24:03 51°22.596 3°13.227 71.2 0.7 53 11.3
2007-03-12 12:25:04 51°22.606 3°13.234 45.9 0.6 5 11.4
2007-03-12 12:26:04 51°22.617 3°13.231 37.5 0.6 341 11.4
2007-03-12 12:27:04 51°22.626 3°13.224 32.7 0.7 326 11.4
2007-03-12 12:28:04 51°22.634 3°13.214 28.3 0.6 317 11.4
2007-03-12 12:29:03 51°22.64 3°13.203 25.4 0.6 311 11.4
2007-03-12 12:30:04 51°22.648 3°13.19 24.4 0.6 309 11.4
2007-03-12 12:31:03 51°22.654 3°13.176 23.6 0.6 304 11.4
2007-03-12 12:32:04 51°22.66 3°13.161 20.9 1 325 11.4
2007-03-12 12:33:04 51°22.692 3°13.123 322.2 3.9 306 11.4
2007-03-12 12:34:04 51°22.708 3°12.942 275.4 10.1 271 11.6
2007-03-12 12:35:04 51°22.69 3°12.605 262.5 14.2 259 12.2
2007-03-12 12:36:04 51°22.623 3°12.236 251.6 14.6 249 12.7
2007-03-12 12:37:04 51°22.566 3°11.858 264.3 14.7 261 13.5
2007-03-12 12:38:04 51°22.53 3°11.471 264.9 14.7 262 14.3
2007-03-12 12:39:04 51°22.488 3°11.087 260.4 14.6 257 14.5
2007-03-12 12:40:04 51°22.417 3°10.715 250.8 14.6 248 15.6
2007-03-12 12:41:04 51°22.32 3°10.361 248.2 14.5 245 14.3
2007-03-12 12:42:04 51°22.218 3°10.009 248.7 14.6 245 13
2007-03-12 12:43:04 51°22.116 3°9.653 248.9 14.8 246 12.4
2007-03-12 12:44:04 51°22.015 3°9.294 248.2 14.8 245 11.6
2007-03-12 12:45:04 51°21.926 3°8.928 255.5 14.8 251 10.9
2007-03-12 12:46:04 51°21.839 3°8.561 248.5 14.8 245 10.3
2007-03-12 12:47:04 51°21.73 3°8.21 247.6 14.7 243 9.9
2007-03-12 12:48:04 51°21.621 3°7.859 247.5 14.8 245 9.6
2007-03-12 12:49:04 51°21.515 3°7.507 248.4 14.7 246 9.1
2007-03-12 12:50:04 51°21.431 3°7.143 255.2 14.6 250 9
2007-03-12 12:51:04 51°21.343 3°6.781 254.5 14.6 250 8.9
2007-03-12 12:52:04 51°21.256 3°6.419 252 14.5 248 8.6
2007-03-12 12:53:04 51°21.175 3°6.056 257.4 14.5 252 8.4
2007-03-12 12:54:04 51°21.083 3°5.7 250.7 14.4 247 8.1
2007-03-12 12:55:04 51°21.006 3°5.337 258.4 14.3 253 8.2
2007-03-12 12:56:04 51°20.912 3°4.987 250.4 14.3 247 7.9
2007-03-12 12:57:04 51°20.821 3°4.64 248.8 14.2 245 7.7
2007-03-12 12:58:04 51°20.744 3°4.285 260.1 14.2 255 7.8
2007-03-12 12:59:04 51°20.665 3°3.93 250.1 14.2 245 7.8
2007-03-12 13:00:04 51°20.568 3°3.584 252 14.2 248 7.7
2007-03-12 13:01:03 51°20.491 3°3.234 261.7 14.3 259 7.5
2007-03-12 13:02:04 51°20.437 3°2.862 253.7 14.1 248 7.8
2007-03-12 13:03:03 51°20.356 3°2.515 257.5 14 255 7.9
2007-03-12 13:04:04 51°20.294 3°2.146 253.3 14.2 248 7.9
2007-03-12 13:05:04 51°20.215 3°1.791 258.7 14.2 255 7.7
2007-03-12 13:06:04 51°20.152 3°1.427 252.9 14.3 247 7.9
2007-03-12 13:07:04 51°20.065 3°1.075 254.7 14.3 250 7.9
2007-03-12 13:08:04 51°19.98 3°0.722 254.2 14.3 250 7.7
2007-03-12 13:09:04 51°19.902 3°0.367 254.5 14.1 250 7.7
2007-03-12 13:10:04 51°19.826 3°0.012 256.9 14.2 253 7.8
2007-03-12 13:11:04 51°19.751 2°59.652 255.8 14.3 251 8
2007-03-12 13:12:04 51°19.691 2°59.282 264.1 14.4 259 8.5
2007-03-12 13:13:04 51°19.617 2°58.916 253.9 14.6 250 8.7
2007-03-12 13:14:04 51°19.549 2°58.544 258.5 14.6 252 8.3
2007-03-12 13:15:04 51°19.465 2°58.177 256 14.7 252 8.5
2007-03-12 13:16:04 51°19.392 2°57.803 254.3 14.8 250 8.7
2007-03-12 13:17:04 51°19.317 2°57.428 258.6 14.9 253 9
2007-03-12 13:18:04 51°19.218 2°57.066 248.1 14.9 245 9.2
2007-03-12 13:19:04 51°19.109 2°56.71 245.1 14.9 241 9.3
2007-03-12 13:20:04 51°18.98 2°56.369 239.8 15 236 9.3
2007-03-12 13:21:04 51°18.838 2°56.041 237 15 234 9.4
2007-03-12 13:22:04 51°18.686 2°55.722 235.2 15.1 233 9.7
2007-03-12 13:23:04 51°18.534 2°55.406 234.6 15 233 9.6
2007-03-12 13:24:04 51°18.383 2°55.091 235 14.9 232 9.4
2007-03-12 13:25:04 51°18.233 2°54.778 236.9 14.8 234 9.1
2007-03-12 13:26:04 51°18.079 2°54.47 233.2 14.8 228 9.1
2007-03-12 13:27:04 51°17.888 2°54.221 217.7 14.9 217 8.9
2007-03-12 13:28:04 51°17.695 2°53.98 218.5 14.6 216 8.6
2007-03-12 13:29:04 51°17.502 2°53.745 219.9 14.5 216 8.5
2007-03-12 13:30:04 51°17.311 2°53.511 222.4 14.4 220 8.1
2007-03-12 13:31:04 51°17.114 2°53.304 208.3 14.1 204 8
2007-03-12 13:32:04 51°16.89 2°53.309 164.4 13.7 162 8.7
2007-03-12 13:33:03 51°16.665 2°53.432 163.6 14.4 163 11
2007-03-12 13:34:04 51°16.432 2°53.541 164.6 14.3 165 11.4
2007-03-12 13:35:04 51°16.204 2°53.639 164 14.2 165 11.2
2007-03-12 13:36:03 51°15.981 2°53.733 164.2 14.1 165 10.9
2007-03-12 13:37:04 51°15.75 2°53.831 164.1 14.1 165 10.4
2007-03-12 13:38:04 51°15.528 2°53.939 161.9 14 162 9.9
2007-03-12 13:39:03 51°15.322 2°54.087 155.8 13.7 156 9
2007-03-12 13:40:04 51°15.117 2°54.228 157.9 12.4 157 8.6
2007-03-12 13:41:04 51°14.932 2°54.36 156.5 12.4 156 8.6
2007-03-12 13:42:03 51°14.748 2°54.511 149.6 12.6 148 9.3
2007-03-12 13:43:04 51°14.581 2°54.719 140.3 12.5 137 9.3
2007-03-12 13:44:04 51°14.429 2°54.954 135.5 12.9 132 10.4
2007-03-12 13:45:03 51°14.301 2°55.197 133.4 10.2 131 11
2007-03-12 13:46:04 51°14.193 2°55.358 149.4 7.9 147 11
2007-03-12 13:47:04 51°14.084 2°55.443 160.4 7 157 4.7
2007-03-12 13:48:04 51°13.977 2°55.521 157.8 7.4 154 10.7
2007-03-12 13:49:04 51°13.865 2°55.602 158.3 7.4 154 10.4
2007-03-12 13:50:04 51°13.758 2°55.697 149.5 7.3 145 10.6
2007-03-12 13:51:04 51°13.677 2°55.833 126 6.3 122 -999
2007-03-12 13:52:07 51°13.631 2°55.959 123 4.3 119 -999
2007-03-12 13:53:07 51°13.608 2°56.045 113.1 2.9 107 10.2
2007-03-12 13:54:05 51°13.6 2°56.087 120.4 0.9 108 7.1
2007-03-12 13:55:04 51°13.597 2°56.094 133.7 0.1 88 7